Map

Track Data

SID SEASON NUMBER BASIN SUBBASIN NAME ISO_TIME NATURE LAT LON WMO_WIND WMO_PRES WMO_AGENCY TRACK_TYPE DIST2LAND LANDFALL IFLAG USA_AGENCY USA_ATCF_ID USA_LAT USA_LON USA_RECORD USA_STATUS USA_WIND USA_PRES USA_SSHS USA_R34_NE USA_R34_SE USA_R34_SW USA_R34_NW USA_R50_NE USA_R50_SE USA_R50_SW USA_R50_NW USA_R64_NE USA_R64_SE USA_R64_SW USA_R64_NW USA_POCI USA_ROCI USA_RMW USA_EYE TOKYO_LAT TOKYO_LON TOKYO_GRADE TOKYO_WIND TOKYO_PRES TOKYO_R50_DIR TOKYO_R50_LONG TOKYO_R50_SHORT TOKYO_R30_DIR TOKYO_R30_LONG TOKYO_R30_SHORT TOKYO_LAND CMA_LAT CMA_LON CMA_CAT CMA_WIND CMA_PRES HKO_LAT HKO_LON HKO_CAT HKO_WIND HKO_PRES NEWDELHI_LAT NEWDELHI_LON NEWDELHI_GRADE NEWDELHI_WIND NEWDELHI_PRES NEWDELHI_CI NEWDELHI_DP NEWDELHI_POCI REUNION_LAT REUNION_LON REUNION_TYPE REUNION_WIND REUNION_PRES REUNION_TNUM REUNION_CI REUNION_RMW REUNION_R34_NE REUNION_R34_SE REUNION_R34_SW REUNION_R34_NW REUNION_R50_NE REUNION_R50_SE REUNION_R50_SW REUNION_R50_NW REUNION_R64_NE REUNION_R64_SE REUNION_R64_SW REUNION_R64_NW BOM_LAT BOM_LON BOM_TYPE BOM_WIND BOM_PRES BOM_TNUM BOM_CI BOM_RMW BOM_R34_NE BOM_R34_SE BOM_R34_SW BOM_R34_NW BOM_R50_NE BOM_R50_SE BOM_R50_SW BOM_R50_NW BOM_R64_NE BOM_R64_SE BOM_R64_SW BOM_R64_NW BOM_ROCI BOM_POCI BOM_EYE BOM_POS_METHOD BOM_PRES_METHOD NADI_LAT NADI_LON NADI_CAT NADI_WIND NADI_PRES WELLINGTON_LAT WELLINGTON_LON WELLINGTON_WIND WELLINGTON_PRES DS824_LAT DS824_LON DS824_STAGE DS824_WIND DS824_PRES TD9636_LAT TD9636_LON TD9636_STAGE TD9636_WIND TD9636_PRES TD9635_LAT TD9635_LON TD9635_WIND TD9635_PRES TD9635_ROCI NEUMANN_LAT NEUMANN_LON NEUMANN_CLASS NEUMANN_WIND NEUMANN_PRES MLC_LAT MLC_LON MLC_CLASS MLC_WIND MLC_PRES USA_GUST BOM_GUST BOM_GUST_PER REUNION_GUST REUNION_GUST_PER USA_SEAHGT USA_SEARAD_NE USA_SEARAD_SE USA_SEARAD_SW USA_SEARAD_NW STORM_SPEED STORM_DIR
1950231N12306 1950 63 NA NA BAKER 1950-08-18 12:00:00 TS 12.0000 -54.0000 30 hurdat_atl main 683 683 O_____________ hurdat_atl AL021950 12.0000 -54.0000 TD 30 -1 5 339
1950231N12306 1950 63 NA NA BAKER 1950-08-18 15:00:00 TS 12.2500 -54.1025 main 717 717 P_____________ AL021950 12.2500 -54.1025 TD 30 -1 5 339
1950231N12306 1950 63 NA NA BAKER 1950-08-18 18:00:00 TS 12.5000 -54.2000 30 hurdat_atl main 728 728 O_____________ hurdat_atl AL021950 12.5000 -54.2000 TD 30 -1 5 340
1950231N12306 1950 63 NA NA BAKER 1950-08-18 21:00:00 TS 12.7500 -54.2925 main 735 735 P_____________ AL021950 12.7500 -54.2925 TD 30 -1 5 339
1950231N12306 1950 63 NA NA BAKER 1950-08-19 00:00:00 TS 13.0000 -54.4000 30 hurdat_atl main 752 752 O_____________ hurdat_atl AL021950 13.0000 -54.4000 TD 30 -1 6 334
1950231N12306 1950 63 NA NA BAKER 1950-08-19 03:00:00 TS 13.2500 -54.5425 main 764 749 P_____________ AL021950 13.2500 -54.5425 TD 30 -1 6 330
1950231N12306 1950 63 NA NA BAKER 1950-08-19 06:00:00 TS 13.5000 -54.7000 30 hurdat_atl main 753 748 O_____________ hurdat_atl AL021950 13.5000 -54.7000 TD 30 -1 6 330
1950231N12306 1950 63 NA NA BAKER 1950-08-19 09:00:00 TS 13.7500 -54.8426 main 753 744 P_____________ AL021950 13.7500 -54.8426 TD 32 -1 6 330
1950231N12306 1950 63 NA NA BAKER 1950-08-19 12:00:00 TS 14.0000 -55.0000 35 hurdat_atl main 749 742 O_____________ hurdat_atl AL021950 14.0000 -55.0000 TS 35 0 6 326
1950231N12306 1950 63 NA NA BAKER 1950-08-19 15:00:00 TS 14.2500 -55.1850 main 742 738 P_____________ AL021950 14.2500 -55.1850 TS 37 0 6 322
1950231N12306 1950 63 NA NA BAKER 1950-08-19 18:00:00 TS 14.5000 -55.4000 40 hurdat_atl main 742 737 O_____________ hurdat_atl AL021950 14.5000 -55.4000 TS 40 0 7 318
1950231N12306 1950 63 NA NA BAKER 1950-08-19 21:00:00 TS 14.7500 -55.6425 main 744 733 P_____________ AL021950 14.7500 -55.6425 TS 42 0 7 316
1950231N12306 1950 63 NA NA BAKER 1950-08-20 00:00:00 TS 15.0000 -55.9000 45 hurdat_atl main 733 732 O_____________ hurdat_atl AL021950 15.0000 -55.9000 TS 45 0 7 316
1950231N12306 1950 63 NA NA BAKER 1950-08-20 03:00:00 TS 15.2499 -56.1426 main 732 732 P_____________ AL021950 15.2499 -56.1426 TS 47 0 7 316
1950231N12306 1950 63 NA NA BAKER 1950-08-20 06:00:00 TS 15.5000 -56.4000 50 hurdat_atl main 732 732 O_____________ hurdat_atl AL021950 15.5000 -56.4000 TS 50 0 7 315
1950231N12306 1950 63 NA NA BAKER 1950-08-20 09:00:00 TS 15.7649 -56.6700 main 736 729 P_____________ AL021950 15.7649 -56.6700 TS 52 0 8 311
1950231N12306 1950 63 NA NA BAKER 1950-08-20 12:00:00 TS 16.0000 -57.0000 55 hurdat_atl main 734 719 O_____________ hurdat_atl AL021950 16.0000 -57.0000 TS 55 0 8 299
1950231N12306 1950 63 NA NA BAKER 1950-08-20 15:00:00 TS 16.1650 -57.4276 main 728 710 P_____________ AL021950 16.1650 -57.4276 TS 57 0 9 289
1950231N12306 1950 63 NA NA BAKER 1950-08-20 18:00:00 TS 16.3000 -57.9000 60 hurdat_atl main 710 701 O_____________ hurdat_atl AL021950 16.3000 -57.9000 TS 60 0 9 288
1950231N12306 1950 63 NA NA BAKER 1950-08-20 21:00:00 TS 16.4574 -58.3425 main 711 699 P_____________ AL021950 16.4574 -58.3425 TS 62 0 9 289
1950231N12306 1950 63 NA NA BAKER 1950-08-21 00:00:00 TS 16.6000 -58.8000 65 hurdat_atl main 702 689 O_____________ hurdat_atl AL021950 16.6000 -58.8000 HU 65 1 10 286
1950231N12306 1950 63 NA NA BAKER 1950-08-21 03:00:00 TS 16.7150 -59.3075 main 689 634 P_____________ AL021950 16.7150 -59.3075 HU 67 1 10 282
1950231N12306 1950 63 NA NA BAKER 1950-08-21 06:00:00 TS 16.8000 -59.8000 70 hurdat_atl main 634 590 O_____________ hurdat_atl AL021950 16.8000 -59.8000 HU 70 1 9 279
1950231N12306 1950 63 NA NA BAKER 1950-08-21 09:00:00 TS 16.8575 -60.2451 main 590 549 P_____________ AL021950 16.8575 -60.2451 HU 70 1 8 277
1950231N12306 1950 63 NA CS BAKER 1950-08-21 12:00:00 TS 16.9000 -60.6000 70 990 hurdat_atl main 549 526 O_____________ hurdat_atl AL021950 16.9000 -60.6000 HU 70 990 1 6 280
1950231N12306 1950 63 NA CS BAKER 1950-08-21 15:00:00 TS 16.9574 -60.8300 main 526 505 P_____________ AL021950 16.9574 -60.8300 HU 72 988 1 4 285
1950231N12306 1950 63 NA CS BAKER 1950-08-21 18:00:00 TS 17.0000 -61.0000 75 987 hurdat_atl main 505 485 O_____________ hurdat_atl AL021950 17.0000 -61.0000 HU 75 987 1 4 279
1950231N12306 1950 63 NA CS BAKER 1950-08-21 21:00:00 TS 17.0150 -61.2000 main 485 465 P_____________ AL021950 17.0150 -61.2000 HU 80 1 4 270
1950231N12306 1950 63 NA CS BAKER 1950-08-22 00:00:00 TS 17.0000 -61.4000 85 hurdat_atl main 465 444 O_____________ hurdat_atl AL021950 17.0000 -61.4000 HU 85 2 4 261
1950231N12306 1950 63 NA CS BAKER 1950-08-22 03:00:00 TS 16.9575 -61.6000 main 444 428 P_____________ AL021950 16.9575 -61.6000 HU 80 1 4 255
1950231N12306 1950 63 NA CS BAKER 1950-08-22 06:00:00 TS 16.9000 -61.8000 75 hurdat_atl main 428 412 O_____________ hurdat_atl AL021950 16.9000 -61.8000 HU 75 1 4 252
1950231N12306 1950 63 NA CS BAKER 1950-08-22 09:00:00 TS 16.8424 -61.9775 main 412 393 P_____________ AL021950 16.8424 -61.9775 HU 67 1 4 255
1950231N12306 1950 63 NA CS BAKER 1950-08-22 12:00:00 TS 16.8000 -62.2000 60 hurdat_atl main 393 364 O_____________ hurdat_atl AL021950 16.8000 -62.2000 L TS 60 0 5 263
1950231N12306 1950 63 NA CS BAKER 1950-08-22 15:00:00 TS 16.7774 -62.4976 main 364 326 P_____________ AL021950 16.7774 -62.4976 TS 52 0 7 270
1950231N12306 1950 63 NA CS BAKER 1950-08-22 18:00:00 TS 16.8000 -62.9000 45 1003 hurdat_atl main 326 274 O_____________ hurdat_atl AL021950 16.8000 -62.9000 TS 45 1003 0 9 276
1950231N12306 1950 63 NA CS BAKER 1950-08-22 21:00:00 TS 16.8701 -63.4201 main 274 216 P_____________ AL021950 16.8701 -63.4201 TS 45 0 11 281
1950231N12306 1950 63 NA CS BAKER 1950-08-23 00:00:00 TS 17.0000 -64.0000 45 hurdat_atl main 216 161 O_____________ hurdat_atl AL021950 17.0000 -64.0000 TS 45 0 11 286
1950231N12306 1950 63 NA CS BAKER 1950-08-23 03:00:00 TS 17.1849 -64.5500 main 161 100 P_____________ AL021950 17.1849 -64.5500 TS 42 0 11 291
1950231N12306 1950 63 NA CS BAKER 1950-08-23 06:00:00 TS 17.4000 -65.1000 40 hurdat_atl main 100 49 O_____________ hurdat_atl AL021950 17.4000 -65.1000 TS 40 0 11 292
1950231N12306 1950 63 NA CS BAKER 1950-08-23 09:00:00 TS 17.5998 -65.6501 main 45 11 P_____________ AL021950 17.5998 -65.6501 TS 37 0 11 291
1950231N12306 1950 63 NA CS BAKER 1950-08-23 12:00:00 TS 17.8000 -66.2000 35 hurdat_atl main 11 0 O_____________ hurdat_atl AL021950 17.8000 -66.2000 TS 35 0 11 291
1950231N12306 1950 63 NA CS BAKER 1950-08-23 15:00:00 TS 17.9997 -66.7352 main 0 0 P_____________ AL021950 17.9997 -66.7352 TS 32 -1 11 291
1950231N12306 1950 63 NA CS BAKER 1950-08-23 18:00:00 TS 18.2000 -67.3000 30 hurdat_atl main 10 10 O_____________ hurdat_atl AL021950 18.2000 -67.3000 TD 30 -1 12 288
1950231N12306 1950 63 NA CS BAKER 1950-08-23 21:00:00 TS 18.3699 -67.9280 main 47 0 P_____________ AL021950 18.3699 -67.9280 TD 30 -1 13 288
1950231N12306 1950 63 NA NA BAKER 1950-08-24 00:00:00 TS 18.6000 -68.6000 30 hurdat_atl main 0 0 O_____________ hurdat_atl AL021950 18.6000 -68.6000 TD 30 -1 14 295
1950231N12306 1950 63 NA NA BAKER 1950-08-24 03:00:00 TS 18.9621 -69.2702 main 0 0 P_____________ AL021950 18.9621 -69.2702 TD 27 -1 16 301
1950231N12306 1950 63 NA NA BAKER 1950-08-24 06:00:00 TS 19.4000 -70.0000 25 hurdat_atl main 0 0 O_____________ hurdat_atl AL021950 19.4000 -70.0000 TD 25 -1 17 302
1950231N12306 1950 63 NA NA BAKER 1950-08-24 09:00:00 TS 19.8649 -70.8273 main 11 11 P_____________ AL021950 19.8649 -70.8273 TD 27 -1 18 299
1950231N12306 1950 63 NA NA BAKER 1950-08-24 12:00:00 TS 20.3000 -71.7000 30 hurdat_atl main 55 55 O_____________ hurdat_atl AL021950 20.3000 -71.7000 TD 30 -1 18 295
1950231N12306 1950 63 NA NA BAKER 1950-08-24 15:00:00 TS 20.6374 -72.5728 main 68 11 P_____________ AL021950 20.6374 -72.5728 TD 35 0 17 291
1950231N12306 1950 63 NA NA BAKER 1950-08-24 18:00:00 TS 20.9000 -73.4000 40 hurdat_atl main 11 0 O_____________ hurdat_atl AL021950 20.9000 -73.4000 TS 40 0 15 289
1950231N12306 1950 63 NA NA BAKER 1950-08-24 21:00:00 TS 21.1215 -74.0930 main 41 41 P_____________ AL021950 21.1215 -74.0930 TS 42 0 14 287
1950231N12306 1950 63 NA NA BAKER 1950-08-25 00:00:00 TS 21.3000 -74.8000 45 hurdat_atl main 78 45 O_____________ hurdat_atl AL021950 21.3000 -74.8000 TS 45 0 15 283
1950231N12306 1950 63 NA NA BAKER 1950-08-25 03:00:00 TS 21.4728 -75.6924 main 54 33 P_____________ AL021950 21.4728 -75.6924 TS 45 0 17 280
1950231N12306 1950 63 NA NA BAKER 1950-08-25 06:00:00 TS 21.6000 -76.6000 45 hurdat_atl main 35 0 O_____________ hurdat_atl AL021950 21.6000 -76.6000 TS 45 0 16 277
1950231N12306 1950 63 NA NA BAKER 1950-08-25 09:00:00 TS 21.6723 -77.4102 main 10 0 P_____________ AL021950 21.6723 -77.4102 TS 40 0 14 274
1950231N12306 1950 63 NA NA BAKER 1950-08-25 12:00:00 TS 21.7000 -78.1000 35 hurdat_atl main 0 0 O_____________ hurdat_atl AL021950 21.7000 -78.1000 TS 35 0 11 272
1950231N12306 1950 63 NA NA BAKER 1950-08-25 15:00:00 TS 21.7070 -78.6376 main 0 0 P_____________ AL021950 21.7070 -78.6376 TS 32 -1 9 270
1950231N12306 1950 63 NA NA BAKER 1950-08-25 18:00:00 TS 21.7000 -79.1000 30 hurdat_atl main 0 0 O_____________ hurdat_atl AL021950 21.7000 -79.1000 TD 30 -1 9 270
1950231N12306 1950 63 NA CS BAKER 1950-08-25 21:00:00 TS 21.6998 -79.5925 main 0 0 P_____________ AL021950 21.6998 -79.5925 TD 32 -1 9 270
1950231N12306 1950 63 NA CS BAKER 1950-08-26 00:00:00 TS 21.7000 -80.1000 35 hurdat_atl main 10 10 O_____________ hurdat_atl AL021950 21.7000 -80.1000 TS 35 0 10 270
1950231N12306 1950 63 NA CS BAKER 1950-08-26 03:00:00 TS 21.6927 -80.6726 main 44 33 P_____________ AL021950 21.6927 -80.6726 TS 40 0 10 270
1950231N12306 1950 63 NA CS BAKER 1950-08-26 06:00:00 TS 21.7000 -81.2000 45 hurdat_atl main 33 33 O_____________ hurdat_atl AL021950 21.7000 -81.2000 TS 45 0 9 273
1950231N12306 1950 63 NA CS BAKER 1950-08-26 09:00:00 TS 21.7422 -81.5875 main 49 39 P_____________ AL021950 21.7422 -81.5875 TS 45 0 7 279
1950231N12306 1950 63 NA CS BAKER 1950-08-26 12:00:00 TS 21.8000 -81.9000 45 hurdat_atl main 45 38 O_____________ hurdat_atl AL021950 21.8000 -81.9000 TS 45 0 6 281
1950231N12306 1950 63 NA CS BAKER 1950-08-26 15:00:00 TS 21.8499 -82.2000 main 38 23 P_____________ AL021950 21.8499 -82.2000 TS 47 0 6 280
1950231N12306 1950 63 NA CS BAKER 1950-08-26 18:00:00 TS 21.9000 -82.5000 50 hurdat_atl main 23 11 O_____________ hurdat_atl AL021950 21.9000 -82.5000 TS 50 0 6 279
1950231N12306 1950 63 NA CS BAKER 1950-08-26 21:00:00 TS 21.9424 -82.8351 main 11 11 P_____________ AL021950 21.9424 -82.8351 TS 50 0 7 279
1950231N12306 1950 63 NA CS BAKER 1950-08-27 00:00:00 TS 22.0000 -83.2000 50 hurdat_atl main 24 11 O_____________ hurdat_atl AL021950 22.0000 -83.2000 TS 50 0 7 282
1950231N12306 1950 63 NA CS BAKER 1950-08-27 03:00:00 TS 22.1001 -83.6074 main 11 0 P_____________ AL021950 22.1001 -83.6074 TS 47 0 8 285
1950231N12306 1950 63 NA NA BAKER 1950-08-27 06:00:00 TS 22.2000 -84.0000 45 hurdat_atl main 0 0 O_____________ hurdat_atl AL021950 22.2000 -84.0000 TS 45 0 7 284
1950231N12306 1950 63 NA NA BAKER 1950-08-27 09:00:00 TS 22.2573 -84.3076 main 0 0 P_____________ AL021950 22.2573 -84.3076 TS 47 0 6 280
1950231N12306 1950 63 NA GM BAKER 1950-08-27 12:00:00 TS 22.3000 -84.6000 50 hurdat_atl main 20 20 O_____________ hurdat_atl AL021950 22.3000 -84.6000 TS 50 0 6 278
1950231N12306 1950 63 NA GM BAKER 1950-08-27 15:00:00 TS 22.3424 -84.9351 main 44 44 P_____________ AL021950 22.3424 -84.9351 TS 52 0 7 279
1950231N12306 1950 63 NA GM BAKER 1950-08-27 18:00:00 TS 22.4000 -85.3000 55 996 hurdat_atl main 63 63 O_____________ hurdat_atl AL021950 22.4000 -85.3000 TS 55 996 0 7 282
1950231N12306 1950 63 NA GM BAKER 1950-08-27 21:00:00 TS 22.4925 -85.7000 main 98 98 P_____________ AL021950 22.4925 -85.7000 TS 55 0 8 285
1950231N12306 1950 63 NA GM BAKER 1950-08-28 00:00:00 TS 22.6000 -86.1000 55 hurdat_atl main 137 137 O_____________ hurdat_atl AL021950 22.6000 -86.1000 TS 55 0 8 286
1950231N12306 1950 63 NA GM BAKER 1950-08-28 03:00:00 TS 22.7000 -86.4800 main 143 137 P_____________ AL021950 22.7000 -86.4800 TS 55 0 7 287
1950231N12306 1950 63 NA GM BAKER 1950-08-28 06:00:00 TS 22.8000 -86.8000 55 hurdat_atl main 146 145 O_____________ hurdat_atl AL021950 22.8000 -86.8000 TS 55 0 5 292
1950231N12306 1950 63 NA GM BAKER 1950-08-28 09:00:00 TS 22.8999 -87.0301 main 156 156 P_____________ AL021950 22.8999 -87.0301 TS 55 0 4 298
1950231N12306 1950 63 NA GM BAKER 1950-08-28 12:00:00 TS 23.0000 -87.2000 55 998 hurdat_atl main 168 168 O_____________ hurdat_atl AL021950 23.0000 -87.2000 TS 55 998 0 4 302
1950231N12306 1950 63 NA GM BAKER 1950-08-28 15:00:00 TS 23.0925 -87.3650 main 181 181 P_____________ AL021950 23.0925 -87.3650 TS 55 997 0 3 306
1950231N12306 1950 63 NA GM BAKER 1950-08-28 18:00:00 TS 23.2000 -87.5000 55 996 hurdat_atl main 191 191 O_____________ hurdat_atl AL021950 23.2000 -87.5000 TS 55 996 0 3 320
1950231N12306 1950 63 NA GM BAKER 1950-08-28 21:00:00 TS 23.3500 -87.6000 main 201 201 P_____________ AL021950 23.3500 -87.6000 TS 60 0 4 329
1950231N12306 1950 63 NA GM BAKER 1950-08-29 00:00:00 TS 23.5000 -87.7000 65 hurdat_atl main 223 223 O_____________ hurdat_atl AL021950 23.5000 -87.7000 HU 65 1 3 319
1950231N12306 1950 63 NA GM BAKER 1950-08-29 03:00:00 TS 23.6075 -87.8425 main 234 234 P_____________ AL021950 23.6075 -87.8425 HU 70 1 3 306
1950231N12306 1950 63 NA GM BAKER 1950-08-29 06:00:00 TS 23.7000 -88.0000 75 hurdat_atl main 245 245 O_____________ hurdat_atl AL021950 23.7000 -88.0000 HU 75 1 4 303
1950231N12306 1950 63 NA GM BAKER 1950-08-29 09:00:00 TS 23.8000 -88.1650 main 257 257 P_____________ AL021950 23.8000 -88.1650 HU 77 1 3 306
1950231N12306 1950 63 NA GM BAKER 1950-08-29 12:00:00 TS 23.9000 -88.3000 80 hurdat_atl main 268 268 O_____________ hurdat_atl AL021950 23.9000 -88.3000 HU 80 1 2 314
1950231N12306 1950 63 NA GM BAKER 1950-08-29 15:00:00 TS 23.9700 -88.3576 main 279 279 P_____________ AL021950 23.9700 -88.3576 HU 82 1 2 335
1950231N12306 1950 63 NA GM BAKER 1950-08-29 18:00:00 TS 24.1000 -88.4000 85 hurdat_atl main 290 290 O_____________ hurdat_atl AL021950 24.1000 -88.4000 HU 85 2 4 342
1950231N12306 1950 63 NA GM BAKER 1950-08-29 21:00:00 TS 24.3400 -88.4925 main 312 312 P_____________ AL021950 24.3400 -88.4925 HU 87 2 6 343
1950231N12306 1950 63 NA GM BAKER 1950-08-30 00:00:00 TS 24.7000 -88.6000 90 hurdat_atl main 357 357 O_____________ hurdat_atl AL021950 24.7000 -88.6000 HU 90 2 8 347
1950231N12306 1950 63 NA GM BAKER 1950-08-30 03:00:00 TS 25.1475 -88.7001 main 402 369 P_____________ AL021950 25.1475 -88.7001 HU 90 2 10 350
1950231N12306 1950 63 NA GM BAKER 1950-08-30 06:00:00 TS 25.7000 -88.8000 90 hurdat_atl main 369 302 O_____________ hurdat_atl AL021950 25.7000 -88.8000 HU 90 2 12 350
1950231N12306 1950 63 NA GM BAKER 1950-08-30 09:00:00 TS 26.3350 -88.9369 main 302 223 P_____________ AL021950 26.3350 -88.9369 HU 90 2 13 352
1950231N12306 1950 63 NA GM BAKER 1950-08-30 12:00:00 TS 27.0000 -89.0000 90 hurdat_atl main 223 157 O_____________ hurdat_atl AL021950 27.0000 -89.0000 HU 90 2 13 1
1950231N12306 1950 63 NA GM BAKER 1950-08-30 15:00:00 TS 27.6075 -88.9027 main 157 97 P_____________ AL021950 27.6075 -88.9027 HU 87 2 12 12
1950231N12306 1950 63 NA GM BAKER 1950-08-30 18:00:00 TS 28.2000 -88.7000 85 hurdat_atl main 97 66 O_____________ hurdat_atl AL021950 28.2000 -88.7000 HU 85 2 12 19
1950231N12306 1950 63 NA GM BAKER 1950-08-30 21:00:00 TS 28.7592 -88.4533 main 59 59 P_____________ AL021950 28.7592 -88.4533 HU 80 1 13 20
1950231N12306 1950 63 NA GM BAKER 1950-08-31 00:00:00 TS 29.4000 -88.2000 75 979 hurdat_atl main 84 11 O_____________ hurdat_atl AL021950 29.4000 -88.2000 HU 75 979 1 15 15
1950231N12306 1950 63 NA GM BAKER 1950-08-31 03:00:00 TS 30.2000 -88.0000 75 979 hurdat_atl main 0 0 O_____________ hurdat_atl AL021950 30.2000 -88.0000 L HU 75 979 1 20 11
1950231N12306 1950 63 NA NA BAKER 1950-08-31 04:00:00 TS 30.7000 -87.9000 75 hurdat_atl main 0 0 O_____________ hurdat_atl AL021950 30.7000 -87.9000 L HU 75 1 18 5
1950231N12306 1950 63 NA NA BAKER 1950-08-31 06:00:00 TS 31.1000 -87.9000 60 hurdat_atl main 0 0 O_____________ hurdat_atl AL021950 31.1000 -87.9000 TS 60 0 18 356
1950231N12306 1950 63 NA NA BAKER 1950-08-31 09:00:00 TS 32.1802 -88.0016 main 0 0 P_____________ AL021950 32.1802 -88.0016 TS 50 0 23 354
1950231N12306 1950 63 NA NA BAKER 1950-08-31 12:00:00 TS 33.4000 -88.2000 40 hurdat_atl main 0 0 O_____________ hurdat_atl AL021950 33.4000 -88.2000 TS 40 0 20 349
1950231N12306 1950 63 NA NA BAKER 1950-08-31 15:00:00 TS 34.1825 -88.4500 main 0 0 P_____________ AL021950 34.1825 -88.4500 TS 37 0 15 344
1950231N12306 1950 63 NA NA BAKER 1950-08-31 18:00:00 TS 34.8000 -88.7000 35 hurdat_atl main 0 0 O_____________ hurdat_atl AL021950 34.8000 -88.7000 TS 35 0 13 344
1950231N12306 1950 63 NA NA BAKER 1950-08-31 21:00:00 TS 35.4524 -88.8876 main 0 0 P_____________ AL021950 35.4524 -88.8876 TS 30 -1 12 348
1950231N12306 1950 63 NA NA BAKER 1950-09-01 00:00:00 TS 36.0000 -89.0000 25 hurdat_atl main 0 0 O_____________ hurdat_atl AL021950 36.0000 -89.0000 TD 25 -1 10 354
1950231N12306 1950 63 NA NA BAKER 1950-09-01 03:00:00 TS 36.4399 -89.0080 main 0 0 P_____________ AL021950 36.4399 -89.0080 TD 22 -1 7 0
1950231N12306 1950 63 NA NA BAKER 1950-09-01 06:00:00 TS 36.7000 -89.0000 20 hurdat_atl main 0 0 O_____________ hurdat_atl AL021950 36.7000 -89.0000 TD 20 -1 3 351
1950231N12306 1950 63 NA NA BAKER 1950-09-01 09:00:00 TS 36.7299 -89.0627 main 0 0 P_____________ AL021950 36.7299 -89.0627 TD 17 -1 2 270
1950231N12306 1950 63 NA NA BAKER 1950-09-01 12:00:00 TS 36.7000 -89.2000 15 hurdat_atl main 0 0 O_____________ hurdat_atl AL021950 36.7000 -89.2000 TD 15 -1 3 284
1950231N12306 1950 63 NA NA BAKER 1950-09-01 15:00:00 TS 36.8027 -89.4245 main 0 0 P_____________ AL021950 36.8027 -89.4245 TD 15 -1 5 307
1950231N12306 1950 63 NA NA BAKER 1950-09-01 18:00:00 TS 37.0000 -89.7000 15 hurdat_atl main 0 O_____________ hurdat_atl AL021950 37.0000 -89.7000 TD 15 -1 6 312

About IBTrACS Database

This database is a web-friendly format of International Best Track Archive for Climate Stewardship (IBTrACS), a global best track data archive curated by NOAA dating back to 1842.

Updated: 2021-10-08